NCAR-RAP Real-Time Weather Data

Output produced by METARs form (12 August 2020  18:17 UTC)
found at http://weather.rap.ucar.edu/surface/
 
KVTN 121752Z AUTO 22014G24KT 10SM CLR 31/16 A2992 RMK AO2 SLP103 T03110156 10317 20150 58001
KVTN 121652Z AUTO 20016G22KT 10SM CLR 31/14 A2993 RMK AO2 SLP106 T03060139
KVTN 121552Z AUTO 23012KT 10SM CLR 29/14 A2992 RMK AO2 SLP100 T02940139
KVTN 121452Z AUTO 22009KT 10SM CLR 27/16 A2992 RMK AO2 SLP105 T02720161 58011
KVTN 121352Z AUTO 10SM CLR 22/15 A2995 RMK AO2 SLP122 T02220150 TSNO
KVTN 121252Z AUTO 00000KT 10SM CLR 18/14 A2996 RMK AO2 SLP125 T01830139 TSNO
KVTN 121152Z AUTO 19003KT 10SM CLR 16/13 A2996 RMK AO2 SLP124 70010 T01610128 10250 20156 53017 TSNO
KVTN 121052Z AUTO 00000KT 10SM CLR 17/13 A2993 RMK AO2 SLP115 T01720133 TSNO
KVTN 120952Z AUTO 00000KT 10SM CLR 17/12 A2991 RMK AO2 SLP107 T01720122 TSNO
KVTN 120852Z AUTO 05004KT 10SM CLR 20/12 A2990 RMK AO2 SLP101 T02000117 51014
KVTN 120752Z AUTO 22010KT 10SM CLR 21/12 A2989 RMK AO2 SLP096 T02060122
KVTN 120652Z AUTO 22013KT 10SM CLR 24/11 A2989 RMK AO2 SLP094 T02390111
KVTN 120552Z AUTO 19012G17KT 10SM CLR 24/11 A2986 RMK AO2 SLP084 60010 T02440106 10311 20217 403330172 55002
KVTN 120452Z AUTO 16015KT 10SM CLR 27/10 A2985 RMK AO2 PK WND 15028/0404 SLP081 T02670100
KVTN 120352Z AUTO 13021G36KT 10SM FEW060 BKN100 30/08 A2984 RMK AO2 PK WND 16051/0303 SLP076 T03000078
KVTN 120252Z AUTO 16020G27KT 10SM FEW048 BKN100 28/10 A2986 RMK AO2 PK WND 20033/0200 WSHFT 0226 LTG DSNT SE RAE17B34E48 TSE17 SLP087 P0006 60010 T02830100 56003
KVTN 120220Z AUTO 24018G28KT 10SM SCT048 BKN110 24/14 A2991 RMK AO2 PK WND 20033/0200 LTG DSNT SE-SW RAE17 TSE17 PRESRR P0006 T02390139
KVTN 120152Z AUTO 20021G31KT 3SM +TSRA BKN044 BKN060 OVC110 22/16 A2988 RMK AO2 PK WND 21033/0130 LTG DSNT S-W RAB37 TSB47 SLP100 P0004 T02220156
KVTN 120052Z AUTO 17016KT 10SM CLR 29/18 A2986 RMK AO2 LTG DSNT SW AND W SLP088 T02890183
KVTN 112352Z AUTO 15010KT 10SM CLR 30/18 A2987 RMK AO2 SLP095 T03000183 10333 20294 55001
KVTN 112252Z AUTO 15015G24KT 10SM CLR 31/17 A2986 RMK AO2 SLP091 T03060172
KVTN 112152Z AUTO 14016G25KT 10SM CLR 32/18 A2987 RMK AO2 PK WND 12027/2053 SLP089 T03220183